Axantha II — CQKN — position and weather

sailwx.info

Track history (hours):
 
Tides and Currents Weather Stations Pressure Air Temp Water Temp Dewpoint Dewpoint Depression Visibility Wind Speed Wind Dir Waves Ship Positions

Axantha II

Last reported at 2015-Sep-03 10:25 UTC. Time now 2016-Feb-06 02:53 UTC.
Position N 43°41' E 007°24'.
Warning: this ship's position is months out of date.

Length 43 m; draft 2.8 m.

Type: Pleasure craft. MMSI: 255804580.

Date/timePositionNaut miles runAvg speedWind from/ knotsBaromVisibWave heightAir tempDewpointWater temp
2015-Sep-03 10:25N 43°41' E 007°24'5 5.4
2015-Sep-03 09:33N 43°42' E 007°17'0 0.0
2015-Sep-03 08:33N 43°42' E 007°17'0 0.0
2015-Sep-03 07:33N 43°42' E 007°17'1 1.0
2015-Sep-03 06:21N 43°40' E 007°17'6 7.3
2015-Sep-03 05:33N 43°35' E 007°12'1111.0
2015-Sep-03 04:31N 43°28' E 007°01'1212.9
2015-Sep-03 03:33N 43°21' E 006°47'7 6.6
2015-Sep-03 02:32N 43°16' E 006°39'0 0.0
2015-Sep-03 01:33N 43°16' E 006°40'0 0.0
2015-Sep-03 00:33N 43°16' E 006°39'0 0.0
2015-Sep-02 23:33N 43°16' E 006°39'0 0.0
2015-Sep-02 22:33N 43°16' E 006°40'0 0.0
2015-Sep-02 21:32N 43°16' E 006°39'0 0.0
2015-Sep-02 20:33N 43°16' E 006°39'0 0.0
2015-Sep-02 19:30N 43°16' E 006°39'0 0.0
2015-Sep-02 18:33N 43°16' E 006°39'0 0.0
2015-Sep-02 17:33N 43°16' E 006°39'0 0.0
2015-Sep-02 16:32N 43°16' E 006°39'0 0.0
2015-Sep-02 15:33N 43°16' E 006°39'0 0.0
2015-Sep-02 14:28N 43°16' E 006°39'0 0.0
2015-Sep-02 13:33N 43°16' E 006°39'0 0.0
2015-Sep-02 12:33N 43°16' E 006°39'0 0.0
2015-Sep-02 11:30N 43°16' E 006°39'0 0.0
2015-Sep-02 10:31N 43°16' E 006°39'0 0.0
2015-Sep-02 09:33N 43°16' E 006°39'0 0.0
2015-Sep-02 08:33N 43°16' E 006°39'0 0.1
2015-Sep-02 07:28N 43°16' E 006°40'6 6.0
2015-Sep-02 06:33N 43°11' E 006°43'13 0.6
2015-Sep-01 11:15N 43°04' E 006°57'105 6.6
2015-Aug-31 19:15N 42°58' E 009°20'0 0.0
2015-Aug-31 17:15N 42°58' E 009°21'0 0.0
2015-Aug-31 16:25N 42°58' E 009°21'0 0.5
2015-Aug-31 15:30N 42°58' E 009°20'16 2.7
2015-Aug-31 09:33N 42°44' E 009°09'4 0.3
2015-Aug-30 21:12N 42°42' E 009°04'0 0.0
2015-Aug-30 20:33N 42°42' E 009°04'0 0.0
2015-Aug-30 19:25N 42°42' E 009°04'  
Track history (hours):
 
Tides and Currents Weather Stations Pressure Air Temp Water Temp Dewpoint Dewpoint Depression Visibility Wind Speed Wind Dir Waves Ship Positions

Axantha II

Last reported at 2015-Sep-03 10:25 UTC. Time now 2016-Feb-06 02:53 UTC.
Position N 43°41' E 007°24'.
Warning: this ship's position is months out of date.

Length 43 m; draft 2.8 m.

Type: Pleasure craft. MMSI: 255804580.

Date/timePositionNaut miles runAvg speedWind from/ knotsBaromVisibWave heightAir tempDewpointWater temp
2015-Sep-03 10:25N 43°41' E 007°24'5 5.4
2015-Sep-03 09:33N 43°42' E 007°17'0 0.0
2015-Sep-03 08:33N 43°42' E 007°17'0 0.0
2015-Sep-03 07:33N 43°42' E 007°17'1 1.0
2015-Sep-03 06:21N 43°40' E 007°17'6 7.3
2015-Sep-03 05:33N 43°35' E 007°12'1111.0
2015-Sep-03 04:31N 43°28' E 007°01'1212.9
2015-Sep-03 03:33N 43°21' E 006°47'7 6.6
2015-Sep-03 02:32N 43°16' E 006°39'0 0.0
2015-Sep-03 01:33N 43°16' E 006°40'0 0.0
2015-Sep-03 00:33N 43°16' E 006°39'0 0.0
2015-Sep-02 23:33N 43°16' E 006°39'0 0.0
2015-Sep-02 22:33N 43°16' E 006°40'0 0.0
2015-Sep-02 21:32N 43°16' E 006°39'0 0.0
2015-Sep-02 20:33N 43°16' E 006°39'0 0.0
2015-Sep-02 19:30N 43°16' E 006°39'0 0.0
2015-Sep-02 18:33N 43°16' E 006°39'0 0.0
2015-Sep-02 17:33N 43°16' E 006°39'0 0.0
2015-Sep-02 16:32N 43°16' E 006°39'0 0.0
2015-Sep-02 15:33N 43°16' E 006°39'0 0.0
2015-Sep-02 14:28N 43°16' E 006°39'0 0.0
2015-Sep-02 13:33N 43°16' E 006°39'0 0.0
2015-Sep-02 12:33N 43°16' E 006°39'0 0.0
2015-Sep-02 11:30N 43°16' E 006°39'0 0.0
2015-Sep-02 10:31N 43°16' E 006°39'0 0.0
2015-Sep-02 09:33N 43°16' E 006°39'0 0.0
2015-Sep-02 08:33N 43°16' E 006°39'0 0.1
2015-Sep-02 07:28N 43°16' E 006°40'6 6.0
2015-Sep-02 06:33N 43°11' E 006°43'13 0.6
2015-Sep-01 11:15N 43°04' E 006°57'105 6.6
2015-Aug-31 19:15N 42°58' E 009°20'0 0.0
2015-Aug-31 17:15N 42°58' E 009°21'0 0.0
2015-Aug-31 16:25N 42°58' E 009°21'0 0.5
2015-Aug-31 15:30N 42°58' E 009°20'16 2.7
2015-Aug-31 09:33N 42°44' E 009°09'4 0.3
2015-Aug-30 21:12N 42°42' E 009°04'0 0.0
2015-Aug-30 20:33N 42°42' E 009°04'0 0.0
2015-Aug-30 19:25N 42°42' E 009°04'  

Dump ship's entire track history